Time;durP1;ratioP1;P1;durP2;ratioP2;P2;SDS_P1;SDS_P2;PMS_P1;PMS_P2;Temp;Humidity;BMP_temperature;BMP_pressure;BME280_temperature;BME280_humidity;BME280_pressure;Samples;Min_cycle;Max_cycle;Signal;HPM_P1;HPM_P2
2021/03/03 00:01:20;;;;;;;18.63;9.95;;;;;;;;;;5093002;28;20543;-69
2021/03/03 00:03:46;;;;;;;18.10;9.35;;;;;;;;;;5092110;28;20031;-69
2021/03/03 00:06:12;;;;;;;17.80;8.95;;;;;;;;;;5093413;28;20057;-69
2021/03/03 00:08:39;;;;;;;15.55;9.73;;;;;;;;;;5092587;28;20032;-69
2021/03/03 00:11:05;;;;;;;22.90;10.40;;;;;;;;;;5091782;28;20529;-69
2021/03/03 00:13:31;;;;;;;19.83;9.63;;;;;;;;;;5093025;28;20028;-69
2021/03/03 00:15:57;;;;;;;21.08;9.70;;;;;;;;;;5092548;28;20081;-69
2021/03/03 00:18:23;;;;;;;20.38;9.70;;;;;;;;;;5092971;28;20031;-69
2021/03/03 00:20:50;;;;;;;20.88;10.95;;;;;;;;;;5092607;28;20027;-69
2021/03/03 00:23:16;;;;;;;20.98;10.40;;;;;;;;;;5091775;28;20121;-69
2021/03/03 00:25:42;;;;;;;17.27;9.35;;;;;;;;;;5092859;28;20020;-69
2021/03/03 00:28:08;;;;;;;22.10;10.13;;;;;;;;;;5091022;28;20519;-68
2021/03/03 00:30:34;;;;;;;19.92;10.15;;;;;;;;;;5092718;28;20060;-69
2021/03/03 00:33:00;;;;;;;18.60;9.38;;;;;;;;;;5092643;28;20472;-69
2021/03/03 00:35:27;;;;;;;21.80;10.43;;;;;;;;;;5092294;28;20028;-66
2021/03/03 00:37:53;;;;;;;20.58;9.82;;;;;;;;;;5092461;28;20028;-69
2021/03/03 00:40:19;;;;;;;17.17;9.82;;;;;;;;;;5092705;28;20426;-69
2021/03/03 00:42:45;;;;;;;18.13;10.80;;;;;;;;;;5092366;28;20069;-69
2021/03/03 00:45:11;;;;;;;24.08;10.55;;;;;;;;;;5092656;28;20048;-69
2021/03/03 00:47:38;;;;;;;21.08;11.10;;;;;;;;;;5090943;28;20479;-69
2021/03/03 00:50:04;;;;;;;21.77;10.00;;;;;;;;;;5092036;28;20028;-68
2021/03/03 00:52:31;;;;;;;20.33;9.68;;;;;;;;;;5092839;28;20024;-69
2021/03/03 00:54:57;;;;;;;19.42;10.55;;;;;;;;;;5092524;28;20029;-69
2021/03/03 00:57:23;;;;;;;17.38;9.68;;;;;;;;;;5092111;28;20412;-69
2021/03/03 00:59:49;;;;;;;19.42;8.82;;;;;;;;;;5092325;28;20024;-69
2021/03/03 01:02:17;;;;;;;18.75;8.70;;;;;;;;;;5092636;28;20030;-69
2021/03/03 01:04:44;;;;;;;18.10;8.82;;;;;;;;;;5092183;28;20498;-70
2021/03/03 01:07:10;;;;;;;19.17;9.18;;;;;;;;;;5092255;28;20468;-69
2021/03/03 01:09:37;;;;;;;17.20;8.77;;;;;;;;;;5094428;28;20446;-69
2021/03/03 01:12:03;;;;;;;17.33;10.10;;;;;;;;;;5096040;28;20103;-69
2021/03/03 01:14:29;;;;;;;17.38;9.02;;;;;;;;;;5095082;28;20056;-69
2021/03/03 01:16:55;;;;;;;14.55;8.20;;;;;;;;;;5096313;28;20024;-69
2021/03/03 01:19:22;;;;;;;18.05;9.23;;;;;;;;;;5095832;28;20020;-69
2021/03/03 01:21:48;;;;;;;18.75;8.52;;;;;;;;;;5096357;28;20488;-69
2021/03/03 01:24:14;;;;;;;21.30;10.20;;;;;;;;;;5096082;28;20404;-69
2021/03/03 01:26:41;;;;;;;17.67;9.63;;;;;;;;;;5096105;28;20095;-69
2021/03/03 01:29:07;;;;;;;17.25;8.02;;;;;;;;;;5095916;28;20039;-69
2021/03/03 01:31:34;;;;;;;15.13;8.18;;;;;;;;;;5095665;28;20024;-69
2021/03/03 01:34:01;;;;;;;15.88;9.38;;;;;;;;;;5096035;28;20418;-69
2021/03/03 01:36:27;;;;;;;19.33;8.13;;;;;;;;;;5096241;28;20053;-69
2021/03/03 01:38:53;;;;;;;19.85;8.93;;;;;;;;;;5095517;28;20024;-69
2021/03/03 01:41:19;;;;;;;19.77;8.82;;;;;;;;;;5095905;28;20075;-69
2021/03/03 01:43:46;;;;;;;23.70;9.13;;;;;;;;;;5096087;28;20020;-69
2021/03/03 01:46:12;;;;;;;19.35;9.23;;;;;;;;;;5094210;28;20400;-69
2021/03/03 01:48:38;;;;;;;16.77;9.18;;;;;;;;;;5095469;28;20048;-68
2021/03/03 01:51:05;;;;;;;18.30;9.35;;;;;;;;;;5095698;28;20021;-69
2021/03/03 01:53:32;;;;;;;16.98;9.32;;;;;;;;;;5095224;28;20035;-69
2021/03/03 01:55:58;;;;;;;17.75;9.90;;;;;;;;;;5094406;28;20414;-69
2021/03/03 01:58:24;;;;;;;18.45;9.13;;;;;;;;;;5095558;28;20050;-69
2021/03/03 02:00:50;;;;;;;18.75;10.07;;;;;;;;;;5095130;28;20021;-69
2021/03/03 02:03:17;;;;;;;20.08;9.43;;;;;;;;;;5095628;28;20024;-69
2021/03/03 02:05:43;;;;;;;20.88;9.77;;;;;;;;;;5095427;28;20032;-69
2021/03/03 02:08:16;;;;;;;25.73;9.85;;;;;;;;;;5094924;28;20032;-69
2021/03/03 02:10:44;;;;;;;17.47;9.00;;;;;;;;;;5095314;28;20027;-69
2021/03/03 02:13:19;;;;;;;17.85;8.77;;;;;;;;;;5095223;28;20263;-69
2021/03/03 02:15:47;;;;;;;18.48;8.90;;;;;;;;;;5095343;28;20082;-69
2021/03/03 02:18:13;;;;;;;16.60;8.95;;;;;;;;;;5094010;28;20455;-69
2021/03/03 02:20:47;;;;;;;18.98;9.90;;;;;;;;;;5094347;28;20419;-69
2021/03/03 02:23:17;;;;;;;18.23;9.98;;;;;;;;;;5095082;28;20055;-69
2021/03/03 02:25:44;;;;;;;17.10;9.65;;;;;;;;;;5095131;28;20027;-69
2021/03/03 02:28:11;;;;;;;17.55;9.15;;;;;;;;;;5094868;28;20333;-69
2021/03/03 02:30:38;;;;;;;19.33;10.52;;;;;;;;;;5094825;28;20091;-68
2021/03/03 02:33:05;;;;;;;17.63;8.80;;;;;;;;;;5094928;28;20028;-69
2021/03/03 02:35:32;;;;;;;15.98;7.82;;;;;;;;;;5094534;28;20022;-69
2021/03/03 02:37:59;;;;;;;19.33;10.10;;;;;;;;;;5094993;28;20035;-69
2021/03/03 02:40:26;;;;;;;18.45;9.63;;;;;;;;;;5094769;28;20020;-69
2021/03/03 02:42:54;;;;;;;18.42;9.90;;;;;;;;;;5094212;28;20024;-69
2021/03/03 02:45:21;;;;;;;15.45;9.00;;;;;;;;;;5094618;28;20019;-69
2021/03/03 02:47:48;;;;;;;17.27;9.02;;;;;;;;;;5094265;28;20037;-68
2021/03/03 02:50:14;;;;;;;19.92;10.45;;;;;;;;;;5094168;28;20020;-69
2021/03/03 02:52:54;;;;;;;20.25;10.65;;;;;;;;;;5094543;28;20020;-69
2021/03/03 02:55:21;;;;;;;19.27;10.20;;;;;;;;;;5094954;28;20081;-69
2021/03/03 02:57:48;;;;;;;16.45;9.32;;;;;;;;;;5094205;28;20511;-69
2021/03/03 03:00:21;;;;;;;17.55;9.43;;;;;;;;;;5094371;28;20024;-69
2021/03/03 03:02:53;;;;;;;16.60;9.40;;;;;;;;;;5093928;28;20103;-69
2021/03/03 03:05:20;;;;;;;18.85;9.30;;;;;;;;;;5094271;28;20227;-69
2021/03/03 03:07:50;;;;;;;20.83;10.18;;;;;;;;;;5094177;28;20068;-69
2021/03/03 03:10:17;;;;;;;20.75;10.20;;;;;;;;;;5093777;28;20020;-69
2021/03/03 03:12:45;;;;;;;19.20;9.95;;;;;;;;;;5094162;28;20027;-69
2021/03/03 03:15:13;;;;;;;21.77;11.27;;;;;;;;;;5094343;28;20070;-69
2021/03/03 03:17:40;;;;;;;16.10;8.95;;;;;;;;;;5093866;28;20069;-69
2021/03/03 03:20:07;;;;;;;19.17;9.18;;;;;;;;;;5094102;28;20503;-69
2021/03/03 03:22:33;;;;;;;15.57;9.00;;;;;;;;;;5093962;28;20075;-69
2021/03/03 03:25:00;;;;;;;19.55;9.52;;;;;;;;;;5093515;28;20380;-68
2021/03/03 03:27:27;;;;;;;17.98;8.90;;;;;;;;;;5093756;28;20217;-69
2021/03/03 03:29:53;;;;;;;18.42;10.32;;;;;;;;;;5094397;28;20024;-69
2021/03/03 03:32:19;;;;;;;15.85;9.18;;;;;;;;;;5092509;28;20496;-69
2021/03/03 03:34:46;;;;;;;17.98;9.38;;;;;;;;;;5093952;28;20035;-70
2021/03/03 03:37:13;;;;;;;19.45;9.50;;;;;;;;;;5093897;28;20078;-69
2021/03/03 03:39:40;;;;;;;19.27;9.35;;;;;;;;;;5093363;28;20031;-69
2021/03/03 03:42:08;;;;;;;23.15;9.98;;;;;;;;;;5093533;28;20016;-69
2021/03/03 03:44:34;;;;;;;21.60;9.88;;;;;;;;;;5093521;28;20085;-69
2021/03/03 03:47:00;;;;;;;20.95;9.70;;;;;;;;;;5092808;28;20032;-68
2021/03/03 03:49:27;;;;;;;24.55;10.18;;;;;;;;;;5093378;28;20480;-69
2021/03/03 03:51:53;;;;;;;22.50;10.45;;;;;;;;;;5093013;28;20024;-69
2021/03/03 03:54:19;;;;;;;21.75;10.88;;;;;;;;;;5093409;28;20130;-69
2021/03/03 03:56:46;;;;;;;21.55;10.68;;;;;;;;;;5093368;28;20016;-69
2021/03/03 03:59:12;;;;;;;17.98;8.95;;;;;;;;;;5092835;28;20047;-69
2021/03/03 04:01:38;;;;;;;19.67;9.63;;;;;;;;;;5093268;28;20103;-69
2021/03/03 04:04:05;;;;;;;16.08;8.23;;;;;;;;;;5091804;28;20020;-69
2021/03/03 04:06:31;;;;;;;18.42;8.98;;;;;;;;;;5093003;28;20031;-69
2021/03/03 04:08:57;;;;;;;19.88;9.13;;;;;;;;;;5093103;28;20036;-69
2021/03/03 04:11:23;;;;;;;23.25;10.77;;;;;;;;;;5093213;28;20016;-69
2021/03/03 04:13:50;;;;;;;14.57;7.72;;;;;;;;;;5092559;28;20381;-69
2021/03/03 04:16:16;;;;;;;18.15;9.60;;;;;;;;;;5093007;28;20476;-69
2021/03/03 04:18:42;;;;;;;24.48;10.88;;;;;;;;;;5092865;28;20391;-68
2021/03/03 04:21:08;;;;;;;21.60;10.45;;;;;;;;;;5092532;28;20442;-68
2021/03/03 04:23:34;;;;;;;25.50;11.48;;;;;;;;;;5091528;28;20032;-69
2021/03/03 04:26:01;;;;;;;23.10;11.73;;;;;;;;;;5092863;28;20035;-68
2021/03/03 04:28:27;;;;;;;17.75;8.73;;;;;;;;;;5092326;28;20047;-69
2021/03/03 04:30:53;;;;;;;22.10;9.98;;;;;;;;;;5093371;28;20024;-69
2021/03/03 04:33:19;;;;;;;23.38;10.90;;;;;;;;;;5092998;28;20032;-69
2021/03/03 04:35:46;;;;;;;22.85;11.65;;;;;;;;;;5092428;28;20012;-69
2021/03/03 04:38:12;;;;;;;16.52;9.13;;;;;;;;;;5092748;28;20028;-69
2021/03/03 04:40:38;;;;;;;25.98;11.88;;;;;;;;;;5092655;28;20414;-69
2021/03/03 04:43:04;;;;;;;23.08;11.45;;;;;;;;;;5090776;28;20024;-70
2021/03/03 04:45:31;;;;;;;21.23;9.85;;;;;;;;;;5092653;28;20021;-69
2021/03/03 04:47:57;;;;;;;17.42;9.35;;;;;;;;;;5092346;28;20059;-68
2021/03/03 04:50:23;;;;;;;17.65;9.02;;;;;;;;;;5092298;28;20016;-69
2021/03/03 04:52:49;;;;;;;19.25;10.18;;;;;;;;;;5092764;28;20095;-69
2021/03/03 04:55:15;;;;;;;22.27;10.15;;;;;;;;;;5090869;28;20443;-69
2021/03/03 04:57:41;;;;;;;17.38;9.07;;;;;;;;;;5092481;28;20034;-69
2021/03/03 05:00:08;;;;;;;17.90;9.63;;;;;;;;;;5092438;28;20146;-69
2021/03/03 05:02:34;;;;;;;22.23;10.18;;;;;;;;;;5090716;28;20067;-69
2021/03/03 05:05:00;;;;;;;17.42;10.48;;;;;;;;;;5092338;28;20095;-69
2021/03/03 05:07:26;;;;;;;20.05;10.80;;;;;;;;;;5092176;28;20051;-69
2021/03/03 05:09:53;;;;;;;22.73;11.20;;;;;;;;;;5091586;28;20024;-69
2021/03/03 05:12:19;;;;;;;25.77;11.77;;;;;;;;;;5090581;28;20480;-69
2021/03/03 05:14:45;;;;;;;23.40;11.13;;;;;;;;;;5091236;28;20036;-69
2021/03/03 05:17:11;;;;;;;26.15;13.98;;;;;;;;;;5091142;28;20376;-69
2021/03/03 05:19:38;;;;;;;21.23;11.10;;;;;;;;;;5092285;28;20028;-69
2021/03/03 05:22:04;;;;;;;25.05;12.80;;;;;;;;;;5090912;28;20017;-69
2021/03/03 05:24:30;;;;;;;23.83;12.00;;;;;;;;;;5091810;28;20024;-69
2021/03/03 05:26:56;;;;;;;19.52;10.25;;;;;;;;;;5090877;28;20031;-69
2021/03/03 05:29:22;;;;;;;20.77;12.38;;;;;;;;;;5091165;28;20358;-69
2021/03/03 05:31:48;;;;;;;24.17;12.35;;;;;;;;;;5090594;28;20016;-69
2021/03/03 05:34:15;;;;;;;19.30;8.82;;;;;;;;;;5090259;28;20024;-69
2021/03/03 05:36:41;;;;;;;18.27;10.18;;;;;;;;;;5089052;28;20032;-69
2021/03/03 05:39:07;;;;;;;22.75;10.82;;;;;;;;;;5089706;28;20476;-69
2021/03/03 05:41:33;;;;;;;23.80;12.65;;;;;;;;;;5090258;28;20028;-69
2021/03/03 05:44:00;;;;;;;21.52;10.73;;;;;;;;;;5090360;28;20020;-67
2021/03/03 05:46:26;;;;;;;21.30;9.70;;;;;;;;;;5090435;28;20028;-67
2021/03/03 05:48:55;;;;;;;47.20;26.67;;;;;;;;;;5091794;28;20052;-68
2021/03/03 05:51:22;;;;;;;31.33;16.60;;;;;;;;;;5090475;28;20357;-67
2021/03/03 05:53:49;;;;;;;32.95;18.13;;;;;;;;;;5092029;28;20027;-67
2021/03/03 05:56:15;;;;;;;32.05;16.98;;;;;;;;;;5093361;28;20059;-67
2021/03/03 05:58:42;;;;;;;82.72;39.45;;;;;;;;;;5095237;28;20047;-67
2021/03/03 06:01:09;;;;;;;62.92;34.90;;;;;;;;;;5095575;28;20451;-68
2021/03/03 06:03:36;;;;;;;33.72;19.48;;;;;;;;;;5095818;28;20464;-67
2021/03/03 06:06:02;;;;;;;35.00;20.38;;;;;;;;;;5093546;28;20406;-66
2021/03/03 06:08:29;;;;;;;28.80;16.38;;;;;;;;;;5095452;28;20115;-66
2021/03/03 06:10:56;;;;;;;40.05;25.77;;;;;;;;;;5095468;28;20020;-66
2021/03/03 06:13:22;;;;;;;49.05;29.65;;;;;;;;;;5094986;28;20028;-66
2021/03/03 06:15:49;;;;;;;57.00;28.50;;;;;;;;;;5095035;28;20024;-70
2021/03/03 06:18:17;;;;;;;55.53;32.55;;;;;;;;;;5093034;28;20032;-70
2021/03/03 06:20:44;;;;;;;36.03;20.80;;;;;;;;;;5105582;28;20081;-70
2021/03/03 06:23:15;;;;;;;44.17;24.05;;;;;;;;;;5091090;28;20058;-70
2021/03/03 06:25:41;;;;;;;40.80;25.00;;;;;;;;;;5094057;28;20091;-73
2021/03/03 06:28:08;;;;;;;29.58;18.90;;;;;;;;;;5098729;28;20383;-71
2021/03/03 06:30:34;;;;;;;26.90;15.13;;;;;;;;;;5099032;28;20472;-74
2021/03/03 06:33:05;;;;;;;32.08;16.92;;;;;;;;;;5088806;28;20062;-73
2021/03/03 06:35:34;;;;;;;30.92;17.63;;;;;;;;;;5090859;28;20444;-74
2021/03/03 06:38:00;;;;;;;45.40;26.92;;;;;;;;;;5092054;28;20420;-73
2021/03/03 06:40:27;;;;;;;41.10;23.08;;;;;;;;;;5090861;28;20397;-72
2021/03/03 06:42:54;;;;;;;30.50;16.67;;;;;;;;;;5091382;28;20062;-76
2021/03/03 06:45:26;;;;;;;33.13;16.83;;;;;;;;;;5092031;28;20510;-76
2021/03/03 06:47:52;;;;;;;27.33;16.33;;;;;;;;;;5091623;28;20458;-74
2021/03/03 06:50:19;;;;;;;28.73;16.27;;;;;;;;;;5093373;28;20383;-78
2021/03/03 06:52:45;;;;;;;29.77;15.75;;;;;;;;;;5092006;28;20047;-75
2021/03/03 06:55:12;;;;;;;24.90;13.13;;;;;;;;;;5093599;28;20627;-76
2021/03/03 06:57:38;;;;;;;27.25;14.68;;;;;;;;;;5093380;28;20032;-72
2021/03/03 07:00:06;;;;;;;30.35;15.82;;;;;;;;;;5092248;28;20065;-73
2021/03/03 07:02:32;;;;;;;22.17;12.45;;;;;;;;;;5090284;28;20028;-77
2021/03/03 07:04:59;;;;;;;30.17;17.08;;;;;;;;;;5093588;28;20448;-80
2021/03/03 07:07:25;;;;;;;64.30;28.15;;;;;;;;;;5093255;28;20029;-76
2021/03/03 07:09:53;;;;;;;69.38;42.50;;;;;;;;;;5093305;28;20032;-75
2021/03/03 07:12:23;;;;;;;35.15;21.10;;;;;;;;;;5093424;28;20016;-76
2021/03/03 07:14:58;;;;;;;24.70;14.20;;;;;;;;;;5092703;28;20107;-77
2021/03/03 07:17:25;;;;;;;24.80;12.95;;;;;;;;;;5093123;28;20024;-76
2021/03/03 07:20:11;;;;;;;23.35;12.40;;;;;;;;;;5091415;28;20408;-80
2021/03/03 07:22:38;;;;;;;23.75;12.45;;;;;;;;;;5089183;28;20020;-76
2021/03/03 07:25:07;;;;;;;26.70;12.55;;;;;;;;;;5085802;28;20027;-76
2021/03/03 07:27:34;;;;;;;20.67;10.98;;;;;;;;;;5088063;28;20033;-78
2021/03/03 07:30:08;;;;;;;31.23;15.10;;;;;;;;;;5071190;28;20025;-80
2021/03/03 07:32:35;;;;;;;20.63;10.73;;;;;;;;;;5073167;28;20499;-78
2021/03/03 07:35:01;;;;;;;20.85;11.48;;;;;;;;;;5071880;28;20029;-79
2021/03/03 07:37:34;;;;;;;20.42;11.48;;;;;;;;;;5072225;28;20025;-78
2021/03/03 07:40:03;;;;;;;19.75;11.38;;;;;;;;;;5071544;28;20036;-77
2021/03/03 07:42:30;;;;;;;17.80;11.27;;;;;;;;;;5071118;28;20024;-79
2021/03/03 07:44:58;;;;;;;22.33;12.50;;;;;;;;;;5071529;28;20024;-79
2021/03/03 07:47:26;;;;;;;21.90;12.32;;;;;;;;;;5072084;28;20048;-83
2021/03/03 07:49:53;;;;;;;21.48;11.57;;;;;;;;;;5072262;28;20033;-80
2021/03/03 07:52:19;;;;;;;21.83;11.18;;;;;;;;;;5072246;28;20024;-78
2021/03/03 07:54:46;;;;;;;18.98;9.98;;;;;;;;;;5070101;28;20150;-73
2021/03/03 07:57:13;;;;;;;23.20;11.75;;;;;;;;;;5071571;28;20021;-74
2021/03/03 07:59:41;;;;;;;17.70;10.18;;;;;;;;;;5068268;28;20032;-75
2021/03/03 08:02:08;;;;;;;25.08;13.65;;;;;;;;;;5067982;28;20017;-74
2021/03/03 08:04:35;;;;;;;20.75;11.57;;;;;;;;;;5071568;28;20028;-71
2021/03/03 08:07:14;;;;;;;27.15;13.23;;;;;;;;;;5070506;28;20500;-70
2021/03/03 08:09:41;;;;;;;16.58;10.02;;;;;;;;;;5071455;28;20028;-69
2021/03/03 08:12:07;;;;;;;21.73;11.40;;;;;;;;;;5070904;28;20032;-72
2021/03/03 08:14:35;;;;;;;26.65;12.00;;;;;;;;;;5070863;28;20024;-74
2021/03/03 08:17:02;;;;;;;28.75;12.07;;;;;;;;;;5068761;28;20027;-74
2021/03/03 08:19:47;;;;;;;24.48;11.25;;;;;;;;;;5070085;28;20032;-73
2021/03/03 08:22:51;;;;;;;24.10;11.18;;;;;;;;;;5170626;27;20518;-73
2021/03/03 08:25:36;;;;;;;18.38;10.23;;;;;;;;;;5148727;27;20027;-72
2021/03/03 08:29:27;;;;;;;20.80;11.68;;;;;;;;;;5066596;28;20449;-70
2021/03/03 08:31:54;;;;;;;21.52;11.18;;;;;;;;;;5066969;28;20370;-71
2021/03/03 08:34:49;;;;;;;24.85;10.60;;;;;;;;;;5065741;28;20387;-76
2021/03/03 08:37:15;;;;;;;;;;;;;;;;;;5058123;28;20083;-75
2021/03/03 08:39:47;;;;;;;16.20;9.63;;;;;;;;;;5054299;28;19908;-75
2021/03/03 08:45:58;;;;;;;20.60;10.45;;;;;;;;;;5072814;27;20445;-75
2021/03/03 08:48:24;;;;;;;15.95;9.32;;;;;;;;;;5066591;28;20033;-75
2021/03/03 08:53:09;;;;;;;17.13;8.68;;;;;;;;;;5066123;28;20899;-73
2021/03/03 08:56:48;;;;;;;17.80;9.57;;;;;;;;;;5065331;28;20384;-74
2021/03/03 09:01:03;;;;;;;18.75;10.93;;;;;;;;;;5128333;27;20116;-75
2021/03/03 09:03:30;;;;;;;19.85;10.05;;;;;;;;;;5101437;28;20032;-75
2021/03/03 09:06:22;;;;;;;17.25;9.68;;;;;;;;;;5106791;27;20380;-75
2021/03/03 09:09:37;;;;;;;21.90;11.27;;;;;;;;;;5108484;27;20454;-73
2021/03/03 09:14:01;;;;;;;19.05;10.57;;;;;;;;;;5109402;27;21141;-76
2021/03/03 09:16:27;;;;;;;17.00;8.63;;;;;;;;;;5109294;28;20043;-73
2021/03/03 09:19:08;;;;;;;15.30;7.10;;;;;;;;;;5109584;27;20373;-73
2021/03/03 09:21:35;;;;;;;17.85;9.45;;;;;;;;;;5109713;28;20031;-73
2021/03/03 09:24:11;;;;;;;18.40;8.38;;;;;;;;;;5109151;28;20098;-74
2021/03/03 09:28:40;;;;;;;18.23;9.40;;;;;;;;;;5066873;28;20960;-73
2021/03/03 09:31:07;;;;;;;17.58;8.65;;;;;;;;;;5066908;28;20032;-70
2021/03/03 09:35:30;;;;;;;14.70;6.97;;;;;;;;;;5066583;28;20384;-72
2021/03/03 09:37:57;;;;;;;14.18;7.78;;;;;;;;;;5061328;28;20025;-75
2021/03/03 09:47:03;;;;;;;21.15;8.68;;;;;;;;;;5109435;27;20434;-74
2021/03/03 09:49:30;;;;;;;13.18;7.03;;;;;;;;;;5109610;28;20488;-75
2021/03/03 09:51:58;;;;;;;15.07;6.85;;;;;;;;;;5109035;28;20027;-77
2021/03/03 09:58:38;;;;;;;16.40;7.65;;;;;;;;;;5130036;27;20383;-74
2021/03/03 10:01:05;;;;;;;13.80;6.63;;;;;;;;;;5127366;28;20030;-73
2021/03/03 10:03:32;;;;;;;14.65;7.03;;;;;;;;;;5113769;28;20076;-72
2021/03/03 10:05:58;;;;;;;15.07;7.53;;;;;;;;;;5118783;28;20028;-73
2021/03/03 10:08:26;;;;;;;13.30;7.38;;;;;;;;;;5105414;28;20024;-73
2021/03/03 10:10:55;;;;;;;15.85;8.27;;;;;;;;;;5108806;28;20024;-73
2021/03/03 10:13:26;;;;;;;14.15;8.05;;;;;;;;;;5100019;28;20098;-75
2021/03/03 10:15:52;;;;;;;15.10;7.55;;;;;;;;;;5104288;28;20066;-74
2021/03/03 10:18:21;;;;;;;21.20;10.57;;;;;;;;;;5107514;28;20071;-71
2021/03/03 10:20:54;;;;;;;15.13;7.93;;;;;;;;;;5110879;28;20074;-71
2021/03/03 10:23:28;;;;;;;13.63;6.28;;;;;;;;;;5108673;28;20383;-74
2021/03/03 10:28:32;;;;;;;13.63;6.60;;;;;;;;;;5086114;28;21974;-74
2021/03/03 10:30:59;;;;;;;13.27;6.47;;;;;;;;;;5066521;28;20115;-75
2021/03/03 10:33:29;;;;;;;14.85;7.68;;;;;;;;;;5067416;28;20021;-74
2021/03/03 10:35:58;;;;;;;18.40;9.20;;;;;;;;;;5067112;28;20468;-73
2021/03/03 10:38:25;;;;;;;17.23;7.53;;;;;;;;;;5085811;28;20477;-77
2021/03/03 10:40:52;;;;;;;18.52;8.27;;;;;;;;;;5061880;28;20028;-73
2021/03/03 10:45:28;;;;;;;15.77;7.05;;;;;;;;;;5061534;28;20395;-75
2021/03/03 10:47:56;;;;;;;14.27;5.72;;;;;;;;;;5054169;28;20021;-72
2021/03/03 10:50:23;;;;;;;12.35;6.05;;;;;;;;;;5057623;28;20048;-66
2021/03/03 10:52:56;;;;;;;12.70;5.55;;;;;;;;;;5049908;28;20296;-68
2021/03/03 10:55:24;;;;;;;16.92;8.95;;;;;;;;;;5046575;28;20043;-69
2021/03/03 10:57:59;;;;;;;15.15;8.23;;;;;;;;;;5056757;28;20021;-68
2021/03/03 11:00:26;;;;;;;11.98;6.03;;;;;;;;;;5057740;28;20405;-69
2021/03/03 11:03:01;;;;;;;12.20;6.07;;;;;;;;;;5068049;28;20358;-68
2021/03/03 11:07:29;;;;;;;10.07;5.60;;;;;;;;;;4987686;27;3277071;-70
2021/03/03 11:09:57;;;;;;;16.48;6.32;;;;;;;;;;5087694;28;20087;-69
2021/03/03 11:12:27;;;;;;;11.88;5.57;;;;;;;;;;5087532;28;20450;-70
2021/03/03 11:14:54;;;;;;;13.18;6.22;;;;;;;;;;5085878;28;20111;-69
2021/03/03 11:17:20;;;;;;;15.35;7.40;;;;;;;;;;5086989;28;20031;-71
2021/03/03 11:19:46;;;;;;;10.57;5.53;;;;;;;;;;5085816;28;20024;-70
2021/03/03 11:22:12;;;;;;;11.95;5.25;;;;;;;;;;5081740;28;20040;-70
2021/03/03 11:24:39;;;;;;;11.73;5.20;;;;;;;;;;5079004;28;20544;-70
2021/03/03 11:27:05;;;;;;;10.02;4.80;;;;;;;;;;5085641;28;20036;-70
2021/03/03 11:29:31;;;;;;;10.73;5.65;;;;;;;;;;5086675;28;20024;-70
2021/03/03 11:31:57;;;;;;;11.95;6.20;;;;;;;;;;5085460;28;20056;-68
2021/03/03 11:34:24;;;;;;;12.75;6.88;;;;;;;;;;5083138;28;20025;-72
2021/03/03 11:36:50;;;;;;;14.85;6.63;;;;;;;;;;5078299;28;20028;-68
2021/03/03 11:39:17;;;;;;;12.20;5.50;;;;;;;;;;5080365;28;20052;-69
2021/03/03 11:41:43;;;;;;;14.32;5.60;;;;;;;;;;5083653;28;20043;-69
2021/03/03 11:44:09;;;;;;;9.57;4.53;;;;;;;;;;5081058;28;20070;-69
2021/03/03 11:46:35;;;;;;;9.48;4.90;;;;;;;;;;5087893;28;20032;-68
2021/03/03 11:49:02;;;;;;;44.33;31.00;;;;;;;;;;5087030;28;20024;-68
2021/03/03 11:51:28;;;;;;;16.20;9.85;;;;;;;;;;5086590;28;20069;-70
2021/03/03 11:53:54;;;;;;;10.50;5.72;;;;;;;;;;5083605;28;20028;-69
2021/03/03 11:56:20;;;;;;;12.73;5.32;;;;;;;;;;5067977;28;20029;-68
2021/03/03 11:58:47;;;;;;;10.40;5.45;;;;;;;;;;5067720;28;20074;-70
2021/03/03 12:01:13;;;;;;;11.55;4.68;;;;;;;;;;5066436;28;20495;-70
2021/03/03 12:03:39;;;;;;;11.15;4.95;;;;;;;;;;5067214;28;20025;-70
2021/03/03 12:06:05;;;;;;;13.27;5.15;;;;;;;;;;5093400;28;20047;-68
2021/03/03 12:08:32;;;;;;;8.30;4.55;;;;;;;;;;5106832;28;20027;-69
2021/03/03 12:10:58;;;;;;;13.23;5.15;;;;;;;;;;5106972;28;20833;-68
2021/03/03 12:13:25;;;;;;;8.60;3.95;;;;;;;;;;5106226;28;20031;-69
2021/03/03 12:15:51;;;;;;;8.82;4.78;;;;;;;;;;5107449;28;20028;-69
2021/03/03 12:18:17;;;;;;;10.32;4.25;;;;;;;;;;5097142;28;20035;-71
2021/03/03 12:20:43;;;;;;;10.57;4.75;;;;;;;;;;5082053;28;20024;-68
2021/03/03 12:23:10;;;;;;;11.65;5.80;;;;;;;;;;5073446;28;20017;-68
2021/03/03 12:25:36;;;;;;;8.52;4.82;;;;;;;;;;5092383;28;20024;-68
2021/03/03 12:28:03;;;;;;;12.65;5.78;;;;;;;;;;5074104;28;20403;-71
2021/03/03 12:30:29;;;;;;;9.35;4.78;;;;;;;;;;5093743;28;20048;-71
2021/03/03 12:32:55;;;;;;;10.02;3.80;;;;;;;;;;5094088;28;20020;-69
2021/03/03 12:35:21;;;;;;;10.68;4.63;;;;;;;;;;5094385;28;20035;-70
2021/03/03 12:37:47;;;;;;;10.20;4.00;;;;;;;;;;5094545;28;20028;-68
2021/03/03 12:40:14;;;;;;;13.45;3.65;;;;;;;;;;5074515;28;20115;-69
2021/03/03 12:42:40;;;;;;;8.55;3.95;;;;;;;;;;5084979;28;20132;-68
2021/03/03 12:45:07;;;;;;;11.35;4.45;;;;;;;;;;5092831;28;20423;-70
2021/03/03 12:47:33;;;;;;;7.40;3.58;;;;;;;;;;5091961;28;20107;-69
2021/03/03 12:49:59;;;;;;;13.80;7.20;;;;;;;;;;5075123;28;20365;-70
2021/03/03 12:52:26;;;;;;;8.88;3.95;;;;;;;;;;5094140;28;20031;-68
2021/03/03 12:54:52;;;;;;;8.45;4.32;;;;;;;;;;5092479;28;20024;-69
2021/03/03 12:57:19;;;;;;;11.52;6.35;;;;;;;;;;5093837;28;20051;-70
2021/03/03 12:59:45;;;;;;;9.73;5.18;;;;;;;;;;5076033;28;20507;-69
2021/03/03 13:02:11;;;;;;;16.15;6.90;;;;;;;;;;5093446;28;20489;-70
2021/03/03 13:04:37;;;;;;;7.35;3.70;;;;;;;;;;5073650;28;20385;-70
2021/03/03 13:07:04;;;;;;;9.50;4.63;;;;;;;;;;5086331;28;20028;-70
2021/03/03 13:09:30;;;;;;;7.07;3.50;;;;;;;;;;5091048;28;20031;-71
2021/03/03 13:11:56;;;;;;;8.70;3.95;;;;;;;;;;5073117;28;20422;-71
2021/03/03 13:14:22;;;;;;;7.82;4.10;;;;;;;;;;5090561;28;20024;-71
2021/03/03 13:16:48;;;;;;;15.55;5.05;;;;;;;;;;5090302;28;20032;-71
2021/03/03 13:19:14;;;;;;;8.02;4.18;;;;;;;;;;5091280;28;20419;-71
2021/03/03 13:21:41;;;;;;;8.90;4.00;;;;;;;;;;5089364;28;20055;-71
2021/03/03 13:24:07;;;;;;;7.60;3.58;;;;;;;;;;5069247;28;20020;-71
2021/03/03 13:26:33;;;;;;;8.93;3.63;;;;;;;;;;5091860;28;20107;-71
2021/03/03 13:29:00;;;;;;;7.28;3.35;;;;;;;;;;5073663;28;20146;-71
2021/03/03 13:31:27;;;;;;;14.65;4.22;;;;;;;;;;5093568;28;20024;-71
2021/03/03 13:33:53;;;;;;;7.88;4.18;;;;;;;;;;5093595;28;20020;-70
2021/03/03 13:36:19;;;;;;;8.35;4.20;;;;;;;;;;5061857;28;20029;-72
2021/03/03 13:38:45;;;;;;;7.10;4.00;;;;;;;;;;5073094;28;20101;-72
2021/03/03 13:41:12;;;;;;;10.23;4.78;;;;;;;;;;5071777;28;20095;-71
2021/03/03 13:43:38;;;;;;;13.50;7.22;;;;;;;;;;5073197;28;20477;-71
2021/03/03 13:46:04;;;;;;;14.52;6.22;;;;;;;;;;5073598;28;20137;-71
2021/03/03 13:48:30;;;;;;;7.80;4.10;;;;;;;;;;5073199;28;20020;-72
2021/03/03 13:50:57;;;;;;;15.25;4.85;;;;;;;;;;5071766;28;20036;-69
2021/03/03 13:53:23;;;;;;;16.52;6.30;;;;;;;;;;5054968;28;20099;-70
2021/03/03 13:55:49;;;;;;;8.57;4.55;;;;;;;;;;5055341;28;20067;-70
2021/03/03 13:58:15;;;;;;;22.48;10.13;;;;;;;;;;5073043;28;20048;-70
2021/03/03 14:00:41;;;;;;;13.35;6.68;;;;;;;;;;5072407;28;20021;-71
2021/03/03 14:03:08;;;;;;;14.15;8.07;;;;;;;;;;5073177;28;20110;-71
2021/03/03 14:05:34;;;;;;;13.25;7.70;;;;;;;;;;5054550;28;20068;-70
2021/03/03 14:08:00;;;;;;;11.82;6.10;;;;;;;;;;5073027;28;20512;-70
2021/03/03 14:10:27;;;;;;;13.32;6.63;;;;;;;;;;5055723;28;20031;-70
2021/03/03 14:12:53;;;;;;;9.25;5.43;;;;;;;;;;5072537;28;20435;-70
2021/03/03 14:15:19;;;;;;;8.95;4.20;;;;;;;;;;5073022;28;20531;-71
2021/03/03 14:17:46;;;;;;;8.65;4.63;;;;;;;;;;5072137;28;20096;-71
2021/03/03 14:20:12;;;;;;;15.63;5.90;;;;;;;;;;5054893;28;20098;-69
2021/03/03 14:22:38;;;;;;;11.93;5.70;;;;;;;;;;5073285;28;20027;-68
2021/03/03 14:25:05;;;;;;;8.70;5.20;;;;;;;;;;5072405;28;20025;-69
2021/03/03 14:27:32;;;;;;;9.52;5.45;;;;;;;;;;5072611;28;20024;-68
2021/03/03 14:29:58;;;;;;;9.88;5.13;;;;;;;;;;5072671;28;20017;-69
2021/03/03 14:32:24;;;;;;;7.10;3.42;;;;;;;;;;5072263;28;20545;-69
2021/03/03 14:34:50;;;;;;;10.55;5.72;;;;;;;;;;5072732;28;20382;-68
2021/03/03 14:37:16;;;;;;;13.00;7.93;;;;;;;;;;5072642;28;20099;-70
2021/03/03 14:39:43;;;;;;;10.90;4.95;;;;;;;;;;5072175;28;20418;-70
2021/03/03 14:42:09;;;;;;;11.73;6.85;;;;;;;;;;5072492;28;20032;-69
2021/03/03 14:44:35;;;;;;;18.95;10.93;;;;;;;;;;5054678;28;20497;-70
2021/03/03 14:47:01;;;;;;;14.13;9.07;;;;;;;;;;5072105;28;20036;-69
2021/03/03 14:49:28;;;;;;;9.55;4.57;;;;;;;;;;5072536;28;20380;-69
2021/03/03 14:51:54;;;;;;;11.80;5.88;;;;;;;;;;5072401;28;20031;-69
2021/03/03 14:54:20;;;;;;;14.25;7.00;;;;;;;;;;5054154;28;20426;-70
2021/03/03 14:56:46;;;;;;;9.02;5.30;;;;;;;;;;5072352;28;20497;-70
2021/03/03 14:59:13;;;;;;;12.13;6.60;;;;;;;;;;5072268;28;20016;-70
2021/03/03 15:01:39;;;;;;;19.30;8.50;;;;;;;;;;5072035;28;20020;-70